createdAt,value
2023-01-03T00:02:49.183Z,3.17
2023-01-03T00:05:39.850Z,2.90
2023-01-03T00:08:34.183Z,3.37
2023-01-03T00:11:49.843Z,3.20
2023-01-03T00:14:42.780Z,2.63
2023-01-03T00:17:37.179Z,2.80
2023-01-03T00:20:37.919Z,3.20
2023-01-03T00:23:30.028Z,3.90
2023-01-03T00:26:25.138Z,2.80
2023-01-03T00:29:21.265Z,3.03
2023-01-03T00:32:13.187Z,2.97
2023-01-03T00:35:06.584Z,3.00
2023-01-03T00:37:57.191Z,3.13
2023-01-03T00:40:53.698Z,2.73
2023-01-03T00:43:48.958Z,2.90
2023-01-03T00:46:44.794Z,3.10
2023-01-03T00:49:42.929Z,2.83
2023-01-03T00:52:37.242Z,3.13
2023-01-03T00:55:31.807Z,2.70
2023-01-03T00:58:28.605Z,3.00
2023-01-03T01:01:28.085Z,3.03
2023-01-03T01:04:20.951Z,3.83
2023-01-03T01:07:11.987Z,2.83
2023-01-03T01:10:03.179Z,2.37
2023-01-03T01:12:58.005Z,2.50
2023-01-03T01:15:49.530Z,2.80
2023-01-03T01:18:48.720Z,3.15
2023-01-03T01:21:47.179Z,3.23
2023-01-03T01:24:40.875Z,2.77
2023-01-03T01:27:34.841Z,2.30
2023-01-03T01:30:29.102Z,2.70
2023-01-03T01:33:22.678Z,2.73
2023-01-03T01:36:20.473Z,3.00
2023-01-03T01:39:23.348Z,2.40
2023-01-03T01:42:45.277Z,1.90
2023-01-03T01:45:37.777Z,2.27
2023-01-03T01:48:29.061Z,2.17
2023-01-03T01:51:22.111Z,1.87
2023-01-03T01:54:16.947Z,2.20
2023-01-03T01:57:13.490Z,2.13
2023-01-03T02:00:03.879Z,2.10
2023-01-03T03:32:12.789Z,1.80
2023-01-03T03:35:06.268Z,2.00
2023-01-03T03:38:00.981Z,2.13
2023-01-03T03:41:31.123Z,2.43
2023-01-03T03:44:44.951Z,2.00
2023-01-03T03:47:43.907Z,2.30
2023-01-03T03:50:39.972Z,2.63
2023-01-03T03:53:34.246Z,2.20
2023-01-03T03:56:28.439Z,2.23
2023-01-03T03:59:19.277Z,2.50
2023-01-03T04:02:09.729Z,2.50
2023-01-03T04:05:02.667Z,2.00
2023-01-03T04:07:52.764Z,2.50
2023-01-03T04:10:44.118Z,2.27
2023-01-03T04:13:32.597Z,2.03
2023-01-03T04:16:20.970Z,2.30
2023-01-03T04:19:10.126Z,2.20
2023-01-03T04:21:58.593Z,2.33
2023-01-03T04:24:48.310Z,2.30
2023-01-03T04:27:39.160Z,2.50
2023-01-03T04:30:28.025Z,2.67
2023-01-03T04:33:16.471Z,2.40
2023-01-03T04:36:19.055Z,2.53
2023-01-03T04:39:07.632Z,2.67
2023-01-03T04:41:57.503Z,2.70
2023-01-03T04:44:44.949Z,2.90
2023-01-03T04:47:37.831Z,2.30
2023-01-03T04:50:28.376Z,2.20
2023-01-03T04:53:17.535Z,2.03
2023-01-03T04:56:06.524Z,3.30
2023-01-03T04:58:57.410Z,2.53
2023-01-03T05:01:52.688Z,2.10
2023-01-03T05:04:50.972Z,3.17
2023-01-03T05:07:39.459Z,3.90
2023-01-03T05:10:27.842Z,3.22
2023-01-03T05:13:18.451Z,2.93
2023-01-03T05:16:11.301Z,3.40
2023-01-03T05:19:03.315Z,2.53
2023-01-03T05:25:30.383Z,3.20
2023-01-03T06:11:17.891Z,3.80
2023-01-03T06:14:10.812Z,3.30
2023-01-03T06:17:17.366Z,2.67
2023-01-03T06:20:09.050Z,3.05
2023-01-03T06:23:03.198Z,3.40
2023-01-03T06:25:51.827Z,3.43
2023-01-03T06:28:42.820Z,3.47
2023-01-03T06:31:31.774Z,3.20
2023-01-03T06:34:20.717Z,2.97
2023-01-03T06:37:10.765Z,3.97
2023-01-03T06:40:00.226Z,3.20
2023-01-03T06:42:48.513Z,3.03
2023-01-03T06:45:55.940Z,4.00
2023-01-03T06:49:01.476Z,3.53
2023-01-03T06:52:11.829Z,4.10
2023-01-03T06:55:00.392Z,4.90
2023-01-03T06:57:49.440Z,4.50
2023-01-03T07:00:41.233Z,3.60
2023-01-03T07:03:29.891Z,3.53
2023-01-03T07:06:18.766Z,4.83
2023-01-03T07:09:07.350Z,4.77
2023-01-03T07:11:56.264Z,4.90
2023-01-03T07:14:44.982Z,4.47
2023-01-03T07:17:34.887Z,4.10
2023-01-03T07:20:23.965Z,4.33
2023-01-03T07:23:13.360Z,5.45
2023-01-03T07:26:01.868Z,4.47
2023-01-03T07:28:50.511Z,4.90
2023-01-03T07:31:42.652Z,5.03
2023-01-03T07:34:32.909Z,4.00
2023-01-03T07:37:23.238Z,4.77
2023-01-03T07:40:12.855Z,3.90
2023-01-03T07:43:21.950Z,3.90
2023-01-03T07:46:14.377Z,5.57
2023-01-03T07:49:11.552Z,4.90
2023-01-03T07:52:05.791Z,4.53
2023-01-03T07:54:54.115Z,4.37
2023-01-03T07:57:42.667Z,4.97
2023-01-03T08:00:31.565Z,5.27
2023-01-03T08:03:21.449Z,4.90
2023-01-03T08:06:11.727Z,4.30
2023-01-03T08:09:19.207Z,3.80
2023-01-03T08:12:25.035Z,4.70
2023-01-03T08:15:13.434Z,4.20
2023-01-03T08:18:01.945Z,4.20
2023-01-03T08:20:51.655Z,3.77
2023-01-03T08:23:40.618Z,4.17
2023-01-03T08:26:32.512Z,4.10
2023-01-03T08:29:22.231Z,4.73
2023-01-03T08:32:10.810Z,4.23
2023-01-03T08:35:00.204Z,3.30
2023-01-03T08:37:50.296Z,2.90
2023-01-03T08:40:42.524Z,3.33
2023-01-03T08:43:37.015Z,3.10
2023-01-03T08:46:25.370Z,3.20
2023-01-03T08:49:14.713Z,3.77
2023-01-03T08:52:04.680Z,3.30
2023-01-03T08:54:54.622Z,4.07
2023-01-03T08:57:43.021Z,3.50
2023-01-03T09:00:36.643Z,3.38
2023-01-03T09:03:28.762Z,3.30
2023-01-03T09:06:17.454Z,2.63
2023-01-03T09:09:06.289Z,3.57
2023-01-03T09:11:55.038Z,3.17
2023-01-03T09:14:45.904Z,3.83
2023-01-03T09:17:35.739Z,3.13
2023-01-03T09:20:24.163Z,3.20
2023-01-03T09:23:12.524Z,3.37
2023-01-03T09:26:03.600Z,2.60
2023-01-03T09:28:52.651Z,3.33
2023-01-03T09:31:41.152Z,3.10
2023-01-03T09:34:31.144Z,3.10
2023-01-03T09:37:20.543Z,2.93
2023-01-03T09:40:10.589Z,2.50
2023-01-03T09:43:18.572Z,3.17
2023-01-03T09:46:18.034Z,3.33
2023-01-03T09:49:08.763Z,3.03
2023-01-03T09:52:16.699Z,3.47
2023-01-03T09:55:40.609Z,3.27
2023-01-03T09:58:47.663Z,2.67
2023-01-03T10:02:03.758Z,2.90
2023-01-03T10:05:25.551Z,3.53
2023-01-03T10:08:32.930Z,8.23
2023-01-03T10:11:28.322Z,3.90
2023-01-03T10:14:30.582Z,3.17
2023-01-03T10:17:29.421Z,2.85
2023-01-03T10:20:38.997Z,3.67
2023-01-03T10:23:30.908Z,2.93
2023-01-03T10:26:32.786Z,3.33
2023-01-03T10:29:21.926Z,3.88
2023-01-03T10:32:25.079Z,3.83
2023-01-03T10:35:22.712Z,3.43
2023-01-03T10:38:11.044Z,3.70
2023-01-03T10:41:03.046Z,4.60
2023-01-03T10:43:59.645Z,4.57
2023-01-03T10:46:53.790Z,5.20
2023-01-03T10:49:46.162Z,5.37
2023-01-03T10:52:38.289Z,5.03
2023-01-03T10:55:28.257Z,5.80
2023-01-03T10:58:29.287Z,5.80
2023-01-03T11:01:24.619Z,5.13
2023-01-03T11:04:18.396Z,4.40
2023-01-03T11:07:16.958Z,5.53
2023-01-03T11:10:05.787Z,5.00
2023-01-03T11:12:57.324Z,5.70
2023-01-03T11:15:47.489Z,6.00
2023-01-03T11:18:35.755Z,5.63
2023-01-03T11:21:29.973Z,6.13
2023-01-03T11:24:28.608Z,6.67
2023-01-03T11:27:25.062Z,6.27
2023-01-03T11:30:21.665Z,5.53
2023-01-03T11:33:29.503Z,6.50
2023-01-03T11:36:31.827Z,6.43
2023-01-03T11:39:46.198Z,6.23
2023-01-03T11:42:41.015Z,6.33
2023-01-03T11:45:50.875Z,5.70
2023-01-03T11:49:00.779Z,5.13
2023-01-03T11:52:00.602Z,5.73
2023-01-03T11:55:58.830Z,5.87
2023-01-03T11:59:58.949Z,5.43
2023-01-03T12:18:19.746Z,5.90
2023-01-03T12:32:48.811Z,6.10
2023-01-03T12:35:46.678Z,7.20
2023-01-03T12:38:45.816Z,6.40
2023-01-03T12:41:40.904Z,6.37
2023-01-03T12:44:37.108Z,5.33
2023-01-03T12:47:30.826Z,5.40
2023-01-03T12:50:29.681Z,5.10
2023-01-03T12:53:23.733Z,6.00
2023-01-03T12:56:54.936Z,5.00
2023-01-03T13:00:06.545Z,5.90
2023-01-03T13:02:58.901Z,5.43
2023-01-03T13:05:52.952Z,5.70
2023-01-03T13:08:48.035Z,5.10
2023-01-03T13:11:43.366Z,4.77
2023-01-03T13:14:57.635Z,5.10
2023-01-03T13:17:48.048Z,4.27
2023-01-03T13:20:37.288Z,4.90
2023-01-03T13:23:35.691Z,5.20
2023-01-03T13:26:26.274Z,4.40
2023-01-03T13:29:46.969Z,4.80
2023-01-03T13:32:50.463Z,4.97
2023-01-03T13:35:58.183Z,4.73
2023-01-03T13:38:47.111Z,4.83
2023-01-03T13:41:38.413Z,4.57
2023-01-03T13:44:28.804Z,5.03
2023-01-03T13:47:31.933Z,5.03
2023-01-03T13:50:21.611Z,4.20
2023-01-03T13:53:31.814Z,4.87
2023-01-03T13:56:25.835Z,4.70
2023-01-03T13:59:35.755Z,4.40
2023-01-03T14:02:51.431Z,5.27
2023-01-03T14:06:01.045Z,4.17
2023-01-03T14:19:45.205Z,12.53
2023-01-03T15:04:18.033Z,6.93
2023-01-03T15:07:57.375Z,7.47
2023-01-03T15:11:42.820Z,7.13
2023-01-03T15:15:21.250Z,6.90
2023-01-03T15:18:26.862Z,6.77
2023-01-03T15:21:22.005Z,6.93
2023-01-03T15:27:45.584Z,7.50
2023-01-03T15:30:48.657Z,6.50
2023-01-03T15:33:43.275Z,8.03
2023-01-03T15:36:36.972Z,6.20
2023-01-03T15:39:30.563Z,6.80
2023-01-03T15:42:46.681Z,8.30
2023-01-03T15:45:42.430Z,8.65
2023-01-03T15:48:39.387Z,7.17
2023-01-03T15:51:31.422Z,7.97
2023-01-03T15:54:23.540Z,7.67
2023-01-03T16:03:28.320Z,9.23
2023-01-03T16:06:18.695Z,9.20
2023-01-03T16:09:09.508Z,9.50
2023-01-03T16:12:05.046Z,9.50
2023-01-03T16:14:58.050Z,9.90
2023-01-03T16:17:49.873Z,9.60
2023-01-03T16:20:40.872Z,10.10
2023-01-03T16:23:32.887Z,10.10
2023-01-03T16:26:29.480Z,10.07
2023-01-03T16:29:21.200Z,9.93
2023-01-03T16:32:22.444Z,10.30
2023-01-03T16:35:21.174Z,11.03
2023-01-03T16:38:14.659Z,10.07
2023-01-03T16:41:04.885Z,11.83
2023-01-03T16:43:59.522Z,11.47
2023-01-03T16:46:51.100Z,11.93
2023-01-03T16:59:00.322Z,11.30
2023-01-03T17:01:50.341Z,12.57
2023-01-03T17:04:46.495Z,11.57
2023-01-03T17:07:39.005Z,11.50
2023-01-03T17:10:37.736Z,12.80
2023-01-03T17:21:27.068Z,15.13
2023-01-03T17:24:18.393Z,15.83
2023-01-03T17:27:13.072Z,14.43
2023-01-03T17:30:04.291Z,15.70
2023-01-03T17:32:53.333Z,14.40
2023-01-03T17:35:42.042Z,14.80
2023-01-03T17:38:34.056Z,16.40
2023-01-03T17:41:25.304Z,17.20
2023-01-03T17:44:16.068Z,23.63
2023-01-03T17:47:39.983Z,17.07
2023-01-03T17:50:30.089Z,19.40
2023-01-03T17:53:21.583Z,20.80
2023-01-03T17:56:15.327Z,16.07
2023-01-03T17:59:04.928Z,14.70
2023-01-03T18:01:54.758Z,15.23
2023-01-03T18:05:14.165Z,16.00
2023-01-03T18:07:54.249Z,13.90
2023-01-03T18:10:47.249Z,14.37
2023-01-03T18:13:39.183Z,15.30
2023-01-03T18:16:27.765Z,16.33
2023-01-03T18:19:16.544Z,18.27
2023-01-03T18:22:05.711Z,17.77
2023-01-03T18:24:55.722Z,19.20
2023-01-03T18:27:48.334Z,19.47
2023-01-03T18:30:38.725Z,18.17
2023-01-03T18:33:27.743Z,17.73
2023-01-03T18:36:24.641Z,18.23
2023-01-03T18:39:16.912Z,18.70
2023-01-03T18:42:19.540Z,17.50
2023-01-03T18:45:12.884Z,18.40
2023-01-03T18:48:02.821Z,17.97
2023-01-03T18:51:00.607Z,18.77
2023-01-03T18:53:54.237Z,22.15
2023-01-03T18:56:44.957Z,23.67
2023-01-03T18:59:33.522Z,19.47
2023-01-03T19:02:23.675Z,18.70
2023-01-03T19:05:15.749Z,23.13
2023-01-03T19:08:05.417Z,22.07
2023-01-03T19:10:55.447Z,20.23
2023-01-03T19:13:55.065Z,19.50
2023-01-03T19:16:44.763Z,19.07
2023-01-03T19:19:33.128Z,21.43
2023-01-03T19:22:28.051Z,20.90
2023-01-03T19:25:24.426Z,21.20
2023-01-03T19:28:15.207Z,20.80
2023-01-03T19:31:03.841Z,19.43
2023-01-03T19:33:53.195Z,19.00
2023-01-03T19:36:41.583Z,18.87
2023-01-03T19:39:37.122Z,20.27
2023-01-03T19:42:43.886Z,20.87
2023-01-03T19:45:34.969Z,19.83
2023-01-03T19:48:26.565Z,19.80
2023-01-03T19:51:15.441Z,19.73
2023-01-03T19:54:03.770Z,21.37
2023-01-03T19:56:58.933Z,19.63
2023-01-03T19:59:52.223Z,18.20
2023-01-03T20:05:55.080Z,18.57
2023-01-03T20:08:44.060Z,15.53
2023-01-03T20:11:33.163Z,17.40
2023-01-03T20:14:24.395Z,18.75
2023-01-03T20:17:23.115Z,16.23
2023-01-03T20:20:13.813Z,15.63
2023-01-03T20:23:07.006Z,17.03
2023-01-03T20:25:56.292Z,15.87
2023-01-03T20:28:48.572Z,14.80
2023-01-03T20:31:39.031Z,15.87
2023-01-03T20:34:29.885Z,15.43
2023-01-03T20:37:21.632Z,16.80
2023-01-03T20:40:16.580Z,16.60
2023-01-03T20:46:04.839Z,17.40
2023-01-03T20:48:59.050Z,17.25
2023-01-03T20:51:47.815Z,16.20
2023-01-03T20:54:36.552Z,15.47
2023-01-03T20:57:25.163Z,13.93
2023-01-03T21:00:26.119Z,14.67
2023-01-03T21:03:14.681Z,16.67
2023-01-03T21:09:14.430Z,17.63
2023-01-03T21:12:06.873Z,15.97
2023-01-03T21:14:56.893Z,16.57
2023-01-03T21:17:51.002Z,14.77
2023-01-03T21:20:41.358Z,16.33
2023-01-03T21:23:32.452Z,15.00
2023-01-03T21:26:23.228Z,17.00
2023-01-03T21:29:13.237Z,16.97
2023-01-03T21:32:02.814Z,14.53
2023-01-03T21:34:52.617Z,14.53
2023-01-03T21:37:48.208Z,16.13
2023-01-03T21:40:40.790Z,13.67
2023-01-03T21:43:31.367Z,13.90
2023-01-03T21:46:22.319Z,13.70
2023-01-03T21:49:12.488Z,15.40
2023-01-03T21:52:05.455Z,16.25
2023-01-03T21:54:55.427Z,14.90
2023-01-03T21:57:56.229Z,14.83
2023-01-03T22:00:47.908Z,13.50
2023-01-03T22:03:54.650Z,12.90
2023-01-03T22:06:45.369Z,13.27
2023-01-03T22:10:05.528Z,12.40
2023-01-03T22:12:59.499Z,13.35
2023-01-03T22:15:51.068Z,13.00
2023-01-03T22:18:40.796Z,12.60
2023-01-03T22:21:31.796Z,12.90
2023-01-03T22:24:25.081Z,14.00
2023-01-03T22:27:15.477Z,11.70
2023-01-03T22:42:20.899Z,13.20
2023-01-03T22:45:11.875Z,13.30
2023-01-03T22:48:01.022Z,11.90
2023-01-03T22:50:51.075Z,12.13
2023-01-03T22:53:42.691Z,11.37
2023-01-03T22:56:32.404Z,13.38
2023-01-03T22:59:26.328Z,13.00
2023-01-03T23:02:28.987Z,12.90
2023-01-03T23:05:19.644Z,11.67
2023-01-03T23:36:59.047Z,11.00
2023-01-03T23:52:12.259Z,10.57
2023-01-03T23:55:06.972Z,10.43
2023-01-03T23:58:01.781Z,11.50
